Thursday, September 20, 2018, 8:40 AM EDT
Back to Local

KWRI, Mcguire Air Force Base

Location: Trenton, NJ, United States Lat: 40.017
Local Time: 8:40 AM EDT (12:40 GMT) Lon: -74.6
Time Zone: US/Eastern Elev: 134 ft

Show me the last for .
Show Decoded

2018-09-19 18:56 METAR KWRI 192256Z 12007KT 10SM CLR 23/21 A2993 RMK AO2A SLP134 T02340209 $ =
2018-09-19 17:56 METAR KWRI 192156Z 11004KT 10SM CLR 25/21 A2991 RMK AO2A SLP127 T02540208 $ =
2018-09-19 15:56 METAR KWRI 191956Z 34009KT 10SM CLR 28/19 A2987 RMK AO2A SLP114 T02820186 $ =
2018-09-19 14:56 METAR KWRI 191856Z 02005KT 10SM FEW040 28/19 A2988 RMK AO2A SLP117 T02830192 $ =
2018-09-19 13:56 METAR KWRI 191756Z 03008KT 10SM FEW037 FEW190 28/19 A2989 RMK AO2A SLP121
                 T02750190 10280 20205 50000 $ =
2018-09-19 12:56 METAR KWRI 191656Z 03006KT 10SM FEW032 27/19 A2989 RMK AO2A SLP121 =
2018-09-19 11:56 METAR KWRI 191556Z 01008KT 10SM FEW190 26/20 A2989 RMK AO2A SLP121 T02640200 $ =
2018-09-19 10:56 METAR KWRI 191456Z 01010KT 10SM CLR 26/20 A2988 RMK AO2A SLP117 52017 =
2018-09-19 09:56 METAR KWRI 191356Z 02008KT 10SM CLR 24/20 A2987 RMK AO2A SLP114 T02420199 $ =
2018-09-19 08:55 METAR KWRI 191255Z COR 34007KT 10SM CLR 22/19 A2986 RMK SLP111 T02200191 COR
                 1256 =
2018-09-19 08:54 METAR KWRI 191254Z 34007KT 10SM CLR 22/19 A2986 RMK SLP111 T02200191 =

Support USWX by starting your Amazon purchase here.